Time;durP1;ratioP1;P1;durP2;ratioP2;P2;SDS_P1;SDS_P2;PMS_P1;PMS_P2;Temp;Humidity;BMP_temperature;BMP_pressure;BME280_temperature;BME280_humidity;BME280_pressure;Samples;Min_cycle;Max_cycle;Signal;HPM_P1;HPM_P2
2023/01/09 00:01:26;;;;;;;6.45;2.42;;;6.70;99.90;;;;;;5096951;28;20039;-50
2023/01/09 00:03:52;;;;;;;6.38;2.33;;;6.70;99.90;;;;;;5096048;28;20093;-46
2023/01/09 00:06:18;;;;;;;5.70;2.30;;;6.70;99.90;;;;;;5095855;28;20624;-46
2023/01/09 00:08:43;;;;;;;5.10;2.35;;;6.70;99.90;;;;;;5096968;28;21017;-48
2023/01/09 00:11:09;;;;;;;5.07;2.42;;;6.70;99.90;;;;;;5095534;28;20177;-48
2023/01/09 00:13:35;;;;;;;7.53;2.50;;;6.70;99.90;;;;;;5096174;28;20047;-46
2023/01/09 00:16:02;;;;;;;7.82;2.35;;;6.70;99.90;;;;;;5096064;28;20039;-46
2023/01/09 00:18:27;;;;;;;5.55;2.05;;;6.60;99.90;;;;;;5076141;28;20513;-47
2023/01/09 00:20:53;;;;;;;4.68;1.83;;;6.60;99.90;;;;;;5095521;28;20089;-46
2023/01/09 00:23:19;;;;;;;5.38;2.10;;;6.70;99.90;;;;;;5095437;28;20101;-47
2023/01/09 00:25:44;;;;;;;5.07;2.10;;;6.70;99.90;;;;;;5096388;28;20447;-49
2023/01/09 00:28:10;;;;;;;5.97;2.13;;;6.70;99.90;;;;;;5095780;28;20508;-46
2023/01/09 00:30:36;;;;;;;6.63;2.05;;;6.70;99.90;;;;;;5095732;28;20523;-46
2023/01/09 00:33:01;;;;;;;5.65;1.90;;;6.70;99.90;;;;;;5095291;28;20074;-47
2023/01/09 00:35:27;;;;;;;4.88;1.80;;;6.70;99.90;;;;;;5095833;28;20143;-48
2023/01/09 00:37:53;;;;;;;10.05;2.13;;;6.80;99.90;;;;;;5095237;28;20068;-48
2023/01/09 00:40:20;;;;;;;4.13;2.03;;;6.80;99.90;;;;;;5094715;28;20043;-47
2023/01/09 00:42:50;;;;;;;4.22;1.70;;;6.70;99.90;;;;;;5096469;28;20129;-49
2023/01/09 00:45:20;;;;;;;3.88;2.00;;;6.80;99.90;;;;;;5095409;28;20043;-47
2023/01/09 00:47:51;;;;;;;3.58;1.90;;;6.70;99.90;;;;;;5095247;28;20048;-48
2023/01/09 00:50:25;;;;;;;4.25;2.30;;;6.70;99.90;;;;;;5095172;28;20043;-49
2023/01/09 00:52:53;;;;;;;6.93;2.67;;;6.80;99.90;;;;;;5095195;28;20401;-47
2023/01/09 00:55:19;;;;;;;4.68;2.25;;;6.70;99.90;;;;;;5094900;28;20043;-46
2023/01/09 00:57:45;;;;;;;5.82;2.00;;;6.70;99.90;;;;;;5095610;28;20051;-49
2023/01/09 01:00:11;;;;;;;4.78;2.80;;;6.70;99.90;;;;;;5095235;28;20119;-46
2023/01/09 01:02:37;;;;;;;7.18;2.65;;;6.70;99.90;;;;;;5095531;28;20128;-47
2023/01/09 01:07:47;;;;;;;6.05;2.60;;;6.70;99.90;;;;;;5094849;28;20052;-48
2023/01/09 01:10:23;;;;;;;8.55;2.95;;;6.60;99.90;;;;;;5095708;28;20374;-47
2023/01/09 01:12:49;;;;;;;5.57;3.05;;;6.60;99.90;;;;;;5095340;28;20511;-46
2023/01/09 01:15:16;;;;;;;6.13;2.63;;;6.60;99.90;;;;;;5095114;28;20043;-46
2023/01/09 01:17:42;;;;;;;7.55;2.70;;;6.60;99.90;;;;;;5095054;28;20040;-47
2023/01/09 01:20:12;;;;;;;8.38;2.75;;;6.70;99.90;;;;;;5076014;28;20577;-48
2023/01/09 01:22:38;;;;;;;6.32;2.53;;;6.60;99.90;;;;;;5094919;28;20036;-47
2023/01/09 01:25:04;;;;;;;4.90;2.67;;;6.60;99.90;;;;;;5094357;28;20097;-47
2023/01/09 01:27:30;;;;;;;7.80;2.65;;;6.60;99.90;;;;;;5094853;28;20130;-46
2023/01/09 01:29:56;;;;;;;6.35;2.70;;;6.60;99.90;;;;;;5095032;28;20046;-46
2023/01/09 01:32:22;;;;;;;5.40;2.17;;;6.60;99.90;;;;;;5076053;28;20047;-47
2023/01/09 01:34:48;;;;;;;7.47;2.67;;;6.60;99.90;;;;;;5093803;28;20490;-48
2023/01/09 01:37:14;;;;;;;5.97;2.65;;;6.50;99.90;;;;;;5094828;28;20039;-46
2023/01/09 01:39:40;;;;;;;6.07;2.35;;;6.50;99.90;;;;;;5094958;28;20431;-47
2023/01/09 01:42:06;;;;;;;5.28;2.55;;;6.40;99.90;;;;;;5094458;28;20043;-49
2023/01/09 01:44:53;;;;;;;7.07;2.75;;;6.40;99.90;;;;;;5093764;28;20434;-47
2023/01/09 01:47:20;;;;;;;10.60;2.70;;;6.30;99.90;;;;;;5080958;28;20553;-47
2023/01/09 01:49:46;;;;;;;5.72;2.75;;;6.20;99.90;;;;;;5094770;28;20474;-47
2023/01/09 01:52:12;;;;;;;8.00;2.55;;;6.10;99.90;;;;;;5094471;28;20058;-48
2023/01/09 01:54:38;;;;;;;9.35;2.38;;;6.10;99.90;;;;;;5094489;28;20054;-47
2023/01/09 01:57:05;;;;;;;6.65;2.67;;;6.00;99.90;;;;;;5093538;28;20184;-46
2023/01/09 01:59:43;;;;;;;8.15;2.65;;;6.10;99.90;;;;;;5094522;28;20481;-47
2023/01/09 02:02:10;;;;;;;7.47;2.83;;;5.90;99.90;;;;;;5094861;28;20055;-49
2023/01/09 02:04:39;;;;;;;7.55;2.50;;;5.90;99.90;;;;;;5094073;28;20461;-46
2023/01/09 02:07:08;;;;;;;6.70;2.78;;;5.90;99.90;;;;;;5094825;28;20043;-46
2023/01/09 02:09:35;;;;;;;6.43;2.95;;;5.90;99.90;;;;;;5095353;28;20031;-46
2023/01/09 02:12:01;;;;;;;8.00;2.78;;;5.80;99.90;;;;;;5095393;28;20141;-46
2023/01/09 02:14:30;;;;;;;8.15;3.03;;;5.70;99.90;;;;;;5094092;28;20538;-46
2023/01/09 02:17:37;;;;;;;11.73;3.33;;;5.80;99.90;;;;;;5093907;28;20095;-46
2023/01/09 02:20:17;;;;;;;12.23;3.63;;;5.70;99.90;;;;;;5022589;28;20053;-47
2023/01/09 02:23:17;;;;;;;9.77;3.65;;;5.60;99.90;;;;;;5016097;28;20391;-49
2023/01/09 02:26:10;;;;;;;8.45;3.40;;;5.60;99.90;;;;;;5015934;28;20049;-48
2023/01/09 02:28:51;;;;;;;9.27;2.85;;;5.40;99.90;;;;;;5015253;28;20288;-46
2023/01/09 02:31:31;;;;;;;10.13;2.88;;;5.40;99.90;;;;;;5031270;28;20045;-46
2023/01/09 02:34:07;;;;;;;6.55;2.80;;;5.40;99.90;;;;;;5030962;28;20399;-46
2023/01/09 02:36:37;;;;;;;6.13;3.03;;;5.30;99.90;;;;;;5033267;28;20057;-48
2023/01/09 02:39:18;;;;;;;7.95;3.28;;;5.30;99.90;;;;;;5034581;28;20631;-47
2023/01/09 02:41:49;;;;;;;6.07;3.00;;;5.20;99.90;;;;;;5035212;28;20156;-47
2023/01/09 02:44:22;;;;;;;5.60;3.45;;;5.00;99.90;;;;;;5018955;28;20521;-45
2023/01/09 02:47:01;;;;;;;5.50;3.05;;;5.10;99.90;;;;;;5034683;28;20579;-48
2023/01/09 02:49:27;;;;;;;8.40;3.50;;;5.00;99.90;;;;;;5034559;28;20124;-46
2023/01/09 02:52:34;;;;;;;8.25;3.50;;;5.10;99.90;;;;;;5034054;28;20045;-47
2023/01/09 02:55:21;;;;;;;7.28;3.38;;;5.00;99.90;;;;;;4959421;28;20461;-46
2023/01/09 02:58:11;;;;;;;10.25;3.60;;;4.90;99.90;;;;;;5026655;28;20515;-49
2023/01/09 03:00:55;;;;;;;7.93;3.42;;;4.80;99.90;;;;;;5031512;28;20086;-45
2023/01/09 03:03:36;;;;;;;13.95;3.17;;;4.90;99.90;;;;;;5031868;28;20115;-46
2023/01/09 03:06:06;;;;;;;7.03;3.83;;;4.80;99.90;;;;;;5031500;28;20063;-48
2023/01/09 03:08:37;;;;;;;7.82;3.58;;;4.80;99.90;;;;;;5034320;28;20087;-45
2023/01/09 03:11:06;;;;;;;12.10;4.15;;;4.90;99.90;;;;;;5033699;28;20534;-47
2023/01/09 03:13:53;;;;;;;12.27;3.88;;;4.90;99.90;;;;;;5033235;28;20107;-46
2023/01/09 03:16:34;;;;;;;9.55;3.42;;;4.80;99.90;;;;;;5033979;28;20081;-48
2023/01/09 03:19:02;;;;;;;9.38;3.88;;;4.80;99.90;;;;;;5033121;28;20057;-47
2023/01/09 03:21:29;;;;;;;8.05;3.63;;;4.90;99.90;;;;;;5033956;28;20055;-48
2023/01/09 03:23:58;;;;;;;15.35;4.25;;;4.90;99.90;;;;;;5033409;28;20041;-46
2023/01/09 03:26:24;;;;;;;12.35;4.15;;;5.00;99.90;;;;;;5033319;28;20064;-47
2023/01/09 03:28:51;;;;;;;11.75;4.45;;;5.00;99.90;;;;;;5016823;28;20045;-47
2023/01/09 03:31:17;;;;;;;9.88;4.35;;;4.80;99.90;;;;;;5036578;28;20055;-49
2023/01/09 03:33:43;;;;;;;11.27;4.32;;;4.80;99.90;;;;;;5097433;28;20154;-46
2023/01/09 03:36:11;;;;;;;11.05;4.05;;;4.90;99.90;;;;;;5096232;28;20126;-47
2023/01/09 03:38:37;;;;;;;8.60;4.13;;;4.80;99.90;;;;;;5095478;28;20046;-46
2023/01/09 03:41:03;;;;;;;12.90;4.07;;;4.90;99.90;;;;;;5096974;28;20051;-45
2023/01/09 03:43:29;;;;;;;8.68;3.88;;;4.80;99.90;;;;;;5077934;28;20479;-48
2023/01/09 03:45:55;;;;;;;9.82;4.90;;;4.70;99.90;;;;;;5095593;28;20393;-48
2023/01/09 03:48:20;;;;;;;8.50;4.45;;;4.80;99.90;;;;;;5078096;28;20051;-47
2023/01/09 03:50:51;;;;;;;9.82;4.32;;;4.80;99.90;;;;;;5097429;28;20453;-48
2023/01/09 03:53:17;;;;;;;9.32;4.95;;;4.90;99.90;;;;;;5096348;28;20043;-49
2023/01/09 03:55:46;;;;;;;10.88;4.60;;;4.90;99.90;;;;;;5097703;28;20207;-47
2023/01/09 03:58:12;;;;;;;10.40;5.40;;;4.90;99.90;;;;;;5096858;28;20060;-46
2023/01/09 04:00:39;;;;;;;10.73;5.15;;;5.00;99.90;;;;;;5079422;28;20043;-46
2023/01/09 04:03:05;;;;;;;12.30;5.60;;;5.00;99.90;;;;;;5096207;28;20070;-46
2023/01/09 04:05:31;;;;;;;11.52;5.40;;;4.80;99.90;;;;;;5096900;28;20087;-47
2023/01/09 04:07:57;;;;;;;15.05;6.10;;;4.80;99.90;;;;;;5095977;28;20438;-46
2023/01/09 04:10:22;;;;;;;11.10;6.00;;;4.80;99.90;;;;;;5096396;28;20047;-47
2023/01/09 04:12:48;;;;;;;10.43;5.55;;;4.80;99.90;;;;;;5077564;28;20120;-47
2023/01/09 04:15:14;;;;;;;15.52;5.80;;;4.90;99.90;;;;;;5096578;28;20156;-47
2023/01/09 04:17:39;;;;;;;12.30;6.25;;;4.70;99.90;;;;;;5095414;28;20096;-50
2023/01/09 04:20:05;;;;;;;12.23;6.03;;;4.80;99.90;;;;;;5077371;28;20386;-45
2023/01/09 04:22:31;;;;;;;16.05;6.45;;;4.70;99.90;;;;;;5095905;28;20040;-46
2023/01/09 04:24:57;;;;;;;13.35;6.40;;;4.70;99.90;;;;;;5076641;28;20459;-48
2023/01/09 04:27:22;;;;;;;14.27;7.38;;;4.60;99.90;;;;;;5095988;28;20478;-46
2023/01/09 04:29:48;;;;;;;12.07;7.05;;;4.70;99.90;;;;;;5097054;28;20043;-48
2023/01/09 04:32:14;;;;;;;11.02;7.38;;;4.70;99.90;;;;;;5096607;28;20047;-47
2023/01/09 04:34:40;;;;;;;13.48;6.43;;;4.50;99.90;;;;;;5096378;28;20040;-47
2023/01/09 04:37:05;;;;;;;11.25;7.05;;;4.50;99.90;;;;;;5095385;28;20035;-46
2023/01/09 04:39:31;;;;;;;12.70;7.25;;;4.40;99.90;;;;;;5095854;28;20039;-45
2023/01/09 04:41:56;;;;;;;14.68;7.43;;;4.60;99.90;;;;;;5095456;28;20071;-46
2023/01/09 04:44:26;;;;;;;15.57;8.35;;;4.50;99.90;;;;;;5094857;28;20430;-46
2023/01/09 04:46:54;;;;;;;20.10;8.82;;;4.60;99.90;;;;;;5095339;28;20180;-47
2023/01/09 04:49:23;;;;;;;14.05;9.05;;;4.50;99.90;;;;;;5095908;28;20079;-47
2023/01/09 04:51:49;;;;;;;17.88;9.07;;;4.70;99.90;;;;;;5095444;28;20484;-50
2023/01/09 04:54:14;;;;;;;16.27;9.93;;;4.50;99.90;;;;;;5077796;28;20056;-48
2023/01/09 04:56:40;;;;;;;17.55;10.35;;;4.40;99.90;;;;;;5095410;28;20106;-46
2023/01/09 04:59:07;;;;;;;19.17;10.80;;;4.50;99.90;;;;;;5095575;28;20476;-46
2023/01/09 05:01:33;;;;;;;15.00;9.82;;;4.50;99.90;;;;;;5095255;28;20116;-46
2023/01/09 05:03:59;;;;;;;21.67;11.38;;;4.40;99.90;;;;;;5095022;28;20470;-45
2023/01/09 05:06:25;;;;;;;19.70;11.43;;;4.40;99.90;;;;;;5092491;28;20038;-46
2023/01/09 05:08:51;;;;;;;17.90;11.95;;;4.50;99.90;;;;;;5077308;28;20432;-47
2023/01/09 05:11:17;;;;;;;20.42;12.70;;;4.40;99.90;;;;;;5095892;28;20040;-47
2023/01/09 05:13:43;;;;;;;19.98;12.63;;;4.30;99.90;;;;;;5078010;28;20334;-46
2023/01/09 05:16:09;;;;;;;22.25;15.65;;;4.50;99.90;;;;;;5076249;28;20084;-46
2023/01/09 05:18:34;;;;;;;24.20;14.52;;;4.40;99.90;;;;;;5077030;28;20054;-47
2023/01/09 05:21:00;;;;;;;21.00;15.68;;;4.40;99.90;;;;;;5094659;28;20052;-46
2023/01/09 05:23:26;;;;;;;24.20;16.00;;;4.50;99.90;;;;;;5094540;28;20390;-46
2023/01/09 05:25:52;;;;;;;22.88;16.92;;;4.40;99.90;;;;;;5094199;28;20044;-47
2023/01/09 05:28:17;;;;;;;24.67;18.25;;;4.30;99.90;;;;;;5095410;28;20047;-47
2023/01/09 05:30:43;;;;;;;25.65;18.08;;;4.30;99.90;;;;;;5095506;28;20079;-48
2023/01/09 05:33:09;;;;;;;31.52;20.00;;;4.50;99.90;;;;;;5094007;28;20603;-47
2023/01/09 05:35:34;;;;;;;27.25;20.52;;;4.30;99.90;;;;;;5095269;28;20040;-47
2023/01/09 05:38:00;;;;;;;30.38;20.55;;;4.40;99.90;;;;;;5076633;28;20075;-46
2023/01/09 05:40:26;;;;;;;26.70;20.88;;;4.50;99.90;;;;;;5076531;28;20047;-47
2023/01/09 05:42:51;;;;;;;27.92;20.70;;;4.40;99.90;;;;;;5094553;28;20044;-47
2023/01/09 05:45:17;;;;;;;27.00;20.65;;;4.40;99.90;;;;;;5095762;28;20044;-46
2023/01/09 05:47:44;;;;;;;31.42;22.38;;;4.40;99.90;;;;;;5076493;28;20048;-46
2023/01/09 05:50:11;;;;;;;29.33;21.60;;;4.30;99.90;;;;;;5094653;28;20123;-46
2023/01/09 05:52:36;;;;;;;29.88;20.73;;;4.40;99.90;;;;;;5094838;28;20050;-46
2023/01/09 05:55:03;;;;;;;30.30;20.92;;;4.40;99.90;;;;;;5094492;28;20039;-46
2023/01/09 05:57:28;;;;;;;32.08;21.25;;;4.40;99.90;;;;;;5094687;28;20040;-46
2023/01/09 05:59:54;;;;;;;30.85;21.73;;;4.20;99.90;;;;;;5059687;28;20112;-47
2023/01/09 06:02:19;;;;;;;31.42;20.67;;;4.30;99.90;;;;;;5095268;28;20047;-47
2023/01/09 06:04:45;;;;;;;31.02;20.67;;;4.10;99.90;;;;;;5094922;28;20078;-48
2023/01/09 06:07:11;;;;;;;30.83;19.65;;;4.30;99.90;;;;;;5077123;28;20437;-47
2023/01/09 06:09:36;;;;;;;28.80;19.67;;;4.20;99.90;;;;;;5095901;28;20119;-46
2023/01/09 06:12:02;;;;;;;31.30;20.00;;;4.10;99.90;;;;;;5098827;28;20036;-46
2023/01/09 06:14:28;;;;;;;28.45;18.45;;;4.30;99.90;;;;;;5079969;28;20382;-50
2023/01/09 06:16:54;;;;;;;29.17;19.90;;;4.20;99.90;;;;;;5098302;28;20507;-47
2023/01/09 06:19:20;;;;;;;30.00;19.85;;;4.30;99.90;;;;;;5080689;28;20494;-47
2023/01/09 06:21:46;;;;;;;30.73;19.33;;;4.50;99.90;;;;;;5081512;28;20441;-47
2023/01/09 06:24:12;;;;;;;31.95;20.35;;;4.50;99.90;;;;;;5098342;28;20565;-49
2023/01/09 06:26:37;;;;;;;27.48;19.02;;;4.50;99.90;;;;;;5079026;28;20170;-47
2023/01/09 06:29:03;;;;;;;27.27;17.65;;;4.70;99.90;;;;;;5098573;28;20131;-50
2023/01/09 06:31:29;;;;;;;23.23;17.80;;;4.60;99.90;;;;;;5098772;28;20069;-47
2023/01/09 06:33:54;;;;;;;25.85;18.17;;;4.70;99.90;;;;;;5076403;28;20159;-48
2023/01/09 06:36:20;;;;;;;25.27;18.33;;;4.70;99.90;;;;;;5087864;28;20267;-48
2023/01/09 06:38:46;;;;;;;22.83;17.45;;;4.80;99.90;;;;;;5080019;28;20503;-47
2023/01/09 06:41:12;;;;;;;26.90;16.85;;;4.70;99.90;;;;;;5098160;28;20234;-47
2023/01/09 06:43:38;;;;;;;23.52;16.55;;;4.80;99.90;;;;;;5097041;28;20086;-49
2023/01/09 06:46:06;;;;;;;23.80;16.52;;;4.70;99.90;;;;;;5097548;28;20050;-46
2023/01/09 06:48:32;;;;;;;23.20;15.57;;;4.70;99.90;;;;;;5097637;28;20047;-50
2023/01/09 06:50:58;;;;;;;24.92;17.55;;;4.60;99.90;;;;;;5078976;28;20052;-50
2023/01/09 06:53:24;;;;;;;26.23;16.73;;;4.50;99.90;;;;;;5097697;28;20048;-48
2023/01/09 06:55:50;;;;;;;23.85;15.25;;;4.70;99.90;;;;;;5098067;28;20382;-48
2023/01/09 06:58:16;;;;;;;23.80;15.70;;;4.50;99.90;;;;;;5098292;28;20040;-48
2023/01/09 07:00:42;;;;;;;21.25;15.10;;;4.60;99.90;;;;;;5098586;28;20093;-48
2023/01/09 07:03:09;;;;;;;21.42;15.93;;;4.60;99.90;;;;;;5097278;28;20059;-48
2023/01/09 07:05:40;;;;;;;24.50;15.43;;;4.80;99.90;;;;;;5097287;28;20048;-49
2023/01/09 07:08:05;;;;;;;21.40;14.60;;;4.70;99.90;;;;;;5079459;28;20207;-46
2023/01/09 07:10:31;;;;;;;20.27;14.35;;;4.90;99.90;;;;;;5098141;28;20042;-45
2023/01/09 07:12:57;;;;;;;23.88;15.38;;;4.90;99.90;;;;;;5096613;28;20164;-46
2023/01/09 07:15:22;;;;;;;22.65;14.57;;;4.70;99.90;;;;;;5098054;28;20610;-49
2023/01/09 07:17:50;;;;;;;20.17;14.13;;;4.80;99.90;;;;;;5097268;28;20036;-49
2023/01/09 07:20:16;;;;;;;17.75;12.82;;;4.90;99.90;;;;;;5097878;28;20043;-47
2023/01/09 07:22:43;;;;;;;22.75;13.60;;;4.80;99.90;;;;;;5096166;28;20248;-47
2023/01/09 07:25:08;;;;;;;23.40;13.13;;;4.80;99.90;;;;;;5097629;28;20039;-49
2023/01/09 07:27:34;;;;;;;18.25;12.35;;;4.80;99.90;;;;;;5078261;28;20036;-46
2023/01/09 07:30:00;;;;;;;18.95;12.38;;;4.90;99.90;;;;;;5079301;28;20054;-47
2023/01/09 07:32:25;;;;;;;23.55;11.52;;;4.90;99.90;;;;;;5096679;28;20043;-46
2023/01/09 07:34:51;;;;;;;19.25;11.75;;;5.00;99.90;;;;;;5097556;28;20039;-47
2023/01/09 07:37:17;;;;;;;16.35;10.93;;;4.90;99.90;;;;;;5097153;28;20071;-48
2023/01/09 07:39:43;;;;;;;18.60;12.13;;;5.00;99.90;;;;;;5080304;28;20616;-50
2023/01/09 07:42:09;;;;;;;18.23;11.95;;;4.90;99.90;;;;;;5079140;28;20866;-47
2023/01/09 07:44:35;;;;;;;18.00;11.15;;;5.00;99.90;;;;;;5097181;28;20040;-49
2023/01/09 07:47:01;;;;;;;15.43;11.10;;;4.90;99.90;;;;;;5092748;28;20043;-50
2023/01/09 07:49:26;;;;;;;15.70;10.25;;;5.00;99.90;;;;;;5088736;28;20028;-45
2023/01/09 07:51:52;;;;;;;16.92;11.00;;;5.00;99.90;;;;;;5097764;28;20047;-46
2023/01/09 07:54:21;;;;;;;17.95;10.65;;;5.10;99.90;;;;;;5097437;28;20082;-50
2023/01/09 07:56:46;;;;;;;16.52;10.90;;;4.90;99.90;;;;;;5097051;28;20039;-50
2023/01/09 07:59:13;;;;;;;18.73;9.70;;;5.10;99.90;;;;;;5062025;28;20137;-48
2023/01/09 08:01:38;;;;;;;16.73;9.75;;;5.00;99.90;;;;;;5077925;28;20120;-47
2023/01/09 08:04:04;;;;;;;18.65;9.90;;;5.10;99.90;;;;;;5096049;28;20287;-46
2023/01/09 08:06:30;;;;;;;16.08;9.25;;;5.00;99.90;;;;;;5095775;28;20100;-47
2023/01/09 08:08:56;;;;;;;13.48;9.25;;;5.00;99.90;;;;;;5096624;28;20537;-46
2023/01/09 08:11:22;;;;;;;15.02;9.18;;;5.20;99.90;;;;;;5096885;28;20044;-45
2023/01/09 08:13:48;;;;;;;14.52;8.82;;;5.20;99.90;;;;;;5095332;28;20047;-47
2023/01/09 08:16:14;;;;;;;11.45;8.70;;;5.20;99.90;;;;;;5095876;28;20503;-46
2023/01/09 08:18:40;;;;;;;12.60;9.45;;;5.30;99.90;;;;;;5077593;28;20545;-50
2023/01/09 08:21:05;;;;;;;11.43;8.13;;;5.20;99.90;;;;;;5095611;28;20131;-47
2023/01/09 08:23:31;;;;;;;13.00;9.18;;;5.30;99.90;;;;;;5095436;28;20043;-48
2023/01/09 08:25:57;;;;;;;14.80;9.00;;;5.20;99.90;;;;;;5095839;28;20392;-46
2023/01/09 08:28:22;;;;;;;18.63;9.52;;;5.30;99.90;;;;;;5095954;28;20390;-45
2023/01/09 08:30:48;;;;;;;16.80;9.13;;;5.30;99.90;;;;;;5096018;28;20040;-47
2023/01/09 08:33:14;;;;;;;15.27;10.25;;;5.40;99.90;;;;;;5095644;28;20039;-48
2023/01/09 08:35:42;;;;;;;18.50;10.00;;;5.40;99.90;;;;;;5094895;28;20040;-47
2023/01/09 08:38:07;;;;;;;12.88;9.27;;;5.30;99.90;;;;;;5070486;28;20947;-48
2023/01/09 08:40:33;;;;;;;14.93;9.95;;;5.50;99.90;;;;;;5082395;28;20124;-48
2023/01/09 08:48:27;;;;;;;18.95;9.02;;;5.60;99.90;;;;;;5095317;28;20058;-46
2023/01/09 08:50:53;;;;;;;15.88;9.10;;;5.60;99.90;;;;;;5093378;28;20043;-47
2023/01/09 08:53:19;;;;;;;17.90;9.35;;;5.70;99.90;;;;;;5090705;28;20044;-47
2023/01/09 08:55:45;;;;;;;14.25;8.93;;;5.60;99.90;;;;;;5079468;28;20059;-50
2023/01/09 08:58:10;;;;;;;15.32;9.82;;;5.70;99.90;;;;;;5079192;28;20036;-46
2023/01/09 09:00:37;;;;;;;15.55;9.20;;;5.70;99.90;;;;;;5091713;28;20107;-46
2023/01/09 09:03:02;;;;;;;11.07;8.65;;;5.80;99.90;;;;;;5073791;28;20044;-47
2023/01/09 09:05:29;;;;;;;15.45;8.63;;;5.90;99.90;;;;;;5071483;28;20055;-47
2023/01/09 09:07:56;;;;;;;13.38;9.68;;;5.90;99.90;;;;;;5062814;28;20119;-46
2023/01/09 09:10:23;;;;;;;13.68;9.52;;;5.90;99.90;;;;;;5076412;28;20044;-46
2023/01/09 09:12:51;;;;;;;14.95;8.65;;;5.90;99.90;;;;;;5062571;28;20721;-46
2023/01/09 09:15:23;;;;;;;12.35;8.07;;;6.00;99.90;;;;;;5059652;28;20048;-49
2023/01/09 09:18:14;;;;;;;12.88;8.38;;;6.00;99.90;;;;;;5080080;28;20076;-47
2023/01/09 09:20:40;;;;;;;19.80;8.57;;;6.10;99.90;;;;;;5075808;28;20055;-48
2023/01/09 09:23:07;;;;;;;17.98;8.80;;;6.10;99.90;;;;;;5076786;28;20069;-46
2023/01/09 09:25:33;;;;;;;15.07;8.55;;;6.00;99.90;;;;;;5077844;28;20123;-49
2023/01/09 09:27:59;;;;;;;13.68;8.77;;;6.00;99.90;;;;;;5078171;28;20054;-46
2023/01/09 09:30:26;;;;;;;14.40;8.20;;;6.20;99.90;;;;;;5073961;28;20056;-46
2023/01/09 09:32:51;;;;;;;17.38;8.60;;;6.10;99.90;;;;;;5085741;28;20047;-47
2023/01/09 09:35:19;;;;;;;13.25;7.88;;;6.30;99.90;;;;;;5060522;28;20050;-47
2023/01/09 09:38:02;;;;;;;13.15;7.65;;;6.20;99.90;;;;;;5078994;28;20439;-47
2023/01/09 09:41:06;;;;;;;15.90;8.13;;;6.30;99.90;;;;;;5042293;28;20043;-48
2023/01/09 09:47:26;;;;;;;12.13;7.60;;;6.30;99.90;;;;;;5013577;28;20516;-47
2023/01/09 09:50:06;;;;;;;13.98;7.47;;;6.30;99.90;;;;;;5019516;28;20626;-48
2023/01/09 09:52:47;;;;;;;12.77;7.63;;;6.40;99.90;;;;;;5010707;28;20068;-48
2023/01/09 09:55:32;;;;;;;13.70;7.20;;;6.30;99.90;;;;;;5015156;28;20084;-46
2023/01/09 09:58:02;;;;;;;12.48;6.50;;;6.30;99.90;;;;;;5016533;28;20050;-47
2023/01/09 10:00:28;;;;;;;16.85;7.65;;;6.30;99.90;;;;;;5012798;28;20146;-50
2023/01/09 10:03:06;;;;;;;14.93;7.68;;;6.30;99.90;;;;;;5018394;28;20045;-47
2023/01/09 10:05:39;;;;;;;11.30;7.38;;;6.40;99.90;;;;;;5018364;28;20056;-46
2023/01/09 10:08:29;;;;;;;13.15;6.95;;;6.30;99.90;;;;;;5030536;28;20106;-47
2023/01/09 10:10:56;;;;;;;15.02;6.85;;;6.30;99.90;;;;;;5015893;28;20056;-48
2023/01/09 10:16:21;;;;;;;10.32;7.00;;;6.20;99.90;;;;;;5029902;28;20517;-46
2023/01/09 10:19:21;;;;;;;14.95;7.43;;;6.30;99.90;;;;;;5031486;28;20374;-47
2023/01/09 10:21:58;;;;;;;14.50;6.78;;;6.30;99.90;;;;;;5028654;28;20077;-50
2023/01/09 10:24:24;;;;;;;13.07;6.82;;;6.30;99.90;;;;;;5066954;28;20051;-47
2023/01/09 10:26:56;;;;;;;14.70;7.05;;;6.20;99.90;;;;;;5094575;28;20051;-48
2023/01/09 10:29:49;;;;;;;16.63;7.32;;;6.20;99.90;;;;;;5076129;28;20126;-47
2023/01/09 10:32:38;;;;;;;10.80;7.05;;;6.20;99.90;;;;;;5075730;28;20223;-47
2023/01/09 10:35:18;;;;;;;16.50;7.95;;;6.10;99.90;;;;;;5076247;28;20397;-46
2023/01/09 10:37:46;;;;;;;23.17;8.23;;;6.30;99.90;;;;;;5095081;28;20042;-46
2023/01/09 10:40:15;;;;;;;14.40;7.38;;;6.30;99.90;;;;;;5094381;28;20071;-47
2023/01/09 10:42:53;;;;;;;15.70;8.20;;;6.20;99.90;;;;;;5094160;28;20495;-46
2023/01/09 10:45:26;;;;;;;18.73;10.43;;;6.20;99.90;;;;;;5075192;28;20070;-47
2023/01/09 10:48:30;;;;;;;19.73;11.55;;;6.40;99.90;;;;;;5093887;28;20126;-46
2023/01/09 10:50:56;;;;;;;16.60;12.05;;;6.40;99.90;;;;;;5074938;28;20482;-46
2023/01/09 10:53:35;;;;;;;14.85;11.88;;;6.40;99.90;;;;;;5093604;28;20101;-47
2023/01/09 10:56:13;;;;;;;19.05;15.43;;;6.30;99.90;;;;;;5094571;28;20055;-49
2023/01/09 10:58:39;;;;;;;18.60;12.80;;;6.30;99.90;;;;;;5097737;28;20071;-47
2023/01/09 11:01:06;;;;;;;22.10;18.20;;;6.40;99.90;;;;;;5097996;28;20217;-46
2023/01/09 11:03:32;;;;;;;19.55;13.82;;;6.50;99.90;;;;;;5097214;28;20075;-47
2023/01/09 11:05:59;;;;;;;19.65;10.20;;;6.50;99.90;;;;;;5097048;28;20422;-46
2023/01/09 11:08:40;;;;;;;14.20;8.18;;;6.60;99.90;;;;;;5097279;28;20040;-48
2023/01/09 11:11:07;;;;;;;14.43;8.43;;;6.50;99.90;;;;;;5097915;28;20907;-46
2023/01/09 11:13:35;;;;;;;14.48;8.88;;;6.60;99.90;;;;;;5097956;28;20071;-47
2023/01/09 11:16:22;;;;;;;15.60;8.40;;;6.60;99.90;;;;;;5097119;28;20374;-47
2023/01/09 11:18:57;;;;;;;13.38;8.05;;;6.70;99.90;;;;;;5090076;28;20039;-51
2023/01/09 11:21:36;;;;;;;12.23;8.43;;;6.70;99.90;;;;;;5098348;28;20056;-48
2023/01/09 11:24:20;;;;;;;11.60;8.10;;;6.80;99.90;;;;;;5097309;28;20293;-47
2023/01/09 11:26:48;;;;;;;11.18;8.63;;;6.80;99.90;;;;;;5079462;28;20078;-48
2023/01/09 11:29:20;;;;;;;14.60;9.18;;;6.90;99.90;;;;;;5097746;28;20337;-45
2023/01/09 11:31:57;;;;;;;11.98;8.43;;;6.80;99.90;;;;;;5097343;28;20208;-47
2023/01/09 11:34:26;;;;;;;16.00;8.75;;;6.90;99.90;;;;;;5097464;28;20305;-47
2023/01/09 11:37:05;;;;;;;15.38;8.52;;;6.90;99.90;;;;;;5096814;28;20077;-45
2023/01/09 11:39:33;;;;;;;13.48;9.25;;;6.90;99.90;;;;;;5097129;28;20039;-46
2023/01/09 11:42:02;;;;;;;14.93;9.07;;;6.90;99.90;;;;;;5096649;28;20114;-46
2023/01/09 11:44:30;;;;;;;13.35;8.70;;;6.80;99.90;;;;;;5097725;28;20046;-46
2023/01/09 11:46:55;;;;;;;14.63;8.65;;;6.90;99.90;;;;;;5095618;28;20127;-47
2023/01/09 11:49:24;;;;;;;15.77;9.00;;;6.90;99.90;;;;;;5097561;28;20040;-46
2023/01/09 11:52:11;;;;;;;12.35;9.25;;;6.90;99.90;;;;;;5097123;28;20048;-48
2023/01/09 11:54:40;;;;;;;13.02;9.55;;;7.00;99.90;;;;;;5096991;28;20109;-47
2023/01/09 11:57:10;;;;;;;14.13;9.02;;;6.90;99.90;;;;;;5077811;28;20051;-46
2023/01/09 11:59:36;;;;;;;16.95;9.52;;;7.00;99.90;;;;;;5096822;28;20051;-46
2023/01/09 12:02:23;;;;;;;16.60;9.60;;;7.00;99.90;;;;;;5096521;28;20039;-46
2023/01/09 12:04:57;;;;;;;15.93;11.20;;;7.10;99.90;;;;;;5097273;28;20059;-49
2023/01/09 12:07:44;;;;;;;12.95;10.20;;;7.20;99.90;;;;;;5096669;28;20147;-46
2023/01/09 12:10:39;;;;;;;14.70;10.50;;;7.20;99.90;;;;;;5097214;28;20138;-47
2023/01/09 12:13:32;;;;;;;14.70;10.07;;;7.30;99.90;;;;;;5096527;28;20462;-47
2023/01/09 12:16:30;;;;;;;13.80;9.87;;;7.40;99.90;;;;;;5087348;28;20059;-46
2023/01/09 12:19:36;;;;;;;17.05;10.02;;;7.30;99.90;;;;;;5080746;28;20305;-47
2023/01/09 12:22:21;;;;;;;16.45;10.02;;;7.30;99.90;;;;;;5020410;28;20057;-48
2023/01/09 12:24:57;;;;;;;15.18;10.82;;;7.40;99.90;;;;;;5011717;28;20051;-48
2023/01/09 12:27:33;;;;;;;15.75;11.10;;;7.40;99.90;;;;;;5028679;28;20208;-47
2023/01/09 12:30:33;;;;;;;18.80;10.93;;;7.50;99.90;;;;;;5020702;28;20048;-47
2023/01/09 12:33:25;;;;;;;15.13;9.90;;;7.60;99.90;;;;;;5028247;28;20152;-46
2023/01/09 12:36:21;;;;;;;15.15;10.35;;;7.80;99.90;;;;;;5029448;28;20067;-47
2023/01/09 12:38:54;;;;;;;14.55;10.65;;;7.80;99.90;;;;;;5030529;28;20152;-49
2023/01/09 12:41:45;;;;;;;13.50;9.77;;;7.80;99.90;;;;;;5030715;28;20116;-47
2023/01/09 12:44:46;;;;;;;13.23;8.68;;;7.80;99.90;;;;;;5030520;28;20052;-46
2023/01/09 12:47:21;;;;;;;14.88;8.63;;;7.80;99.90;;;;;;5030093;28;20052;-46
2023/01/09 12:49:58;;;;;;;10.90;8.52;;;7.90;99.90;;;;;;5007963;28;20053;-47
2023/01/09 12:52:33;;;;;;;14.55;8.15;;;7.80;99.90;;;;;;5029818;28;20447;-48
2023/01/09 12:55:05;;;;;;;15.40;8.82;;;7.90;99.90;;;;;;5026472;28;20602;-46
2023/01/09 12:57:39;;;;;;;11.55;7.43;;;8.00;99.90;;;;;;5036215;28;20053;-47
2023/01/09 13:00:25;;;;;;;15.50;7.68;;;8.10;99.90;;;;;;5082049;28;20051;-47
2023/01/09 13:03:25;;;;;;;17.77;7.68;;;8.10;99.90;;;;;;5093271;28;20051;-48
2023/01/09 13:05:53;;;;;;;15.27;6.70;;;8.20;99.90;;;;;;5030619;28;20088;-47
2023/01/09 13:08:49;;;;;;;8.43;6.07;;;8.10;99.90;;;;;;5032878;28;20523;-48
2023/01/09 13:11:21;;;;;;;15.38;6.22;;;8.10;99.90;;;;;;5045261;28;20057;-48
2023/01/09 13:14:45;;;;;;;12.80;6.63;;;8.00;99.90;;;;;;5036919;28;20521;-49
2023/01/09 13:17:18;;;;;;;8.85;4.88;;;7.90;99.90;;;;;;4969789;28;20058;-47
2023/01/09 13:19:45;;;;;;;11.30;4.95;;;7.90;99.90;;;;;;4954328;28;20462;-46